CST,Max TemperatureF,Mean TemperatureF,Min TemperatureF,Max Dew PointF,MeanDew PointF,Min DewpointF,Max Humidity, Mean Humidity, Min Humidity, Max Sea Level PressureIn, Mean Sea Level PressureIn, Min Sea Level PressureIn, Max VisibilityMiles, Mean VisibilityMiles, Min VisibilityMiles, Max Wind SpeedMPH, Mean Wind SpeedMPH, Max Gust SpeedMPH,PrecipitationIn, CloudCover, Events, WindDirDegrees
2014-2-1,18,10,1,13,2,-7,84,71,61,30.15,30.03,29.96,,,,16,5,30,0.05,,,302
2014-2-2,12,2,-7,3,-4,-14,75,63,53,30.27,30.22,30.18,,,,16,6,21,0.00,,,264
2014-2-3,21,11,1,11,2,-4,80,69,50,30.35,30.24,30.18,,,,9,6,17,0.00,,,292
2014-2-4,18,10,1,3,-2,-10,70,60,45,30.51,30.46,30.36,,,,18,8,32,0.00,,,326
2014-2-5,10,4,-2,-4,-9,-12,69,60,44,30.55,30.48,30.39,,,,16,10,29,0.00,,,309
2014-2-6,12,4,-4,0,-6,-11,76,65,49,30.36,30.18,30.01,,,,14,7,21,0.00,,,258
2014-2-7,18,6,-6,2,-4,-12,76,63,40,30.16,30.02,29.96,,,,14,9,26,0.00,,,268
2014-2-8,15,8,0,4,-3,-9,70,62,51,30.20,30.17,30.14,,,,14,5,23,0.00,,,326
2014-2-9,7,1,-5,-6,-11,-16,66,57,44,30.38,30.25,30.17,,,,18,11,31,0.00,,,314
2014-2-10,8,0,-8,-8,-13,-17,72,58,41,30.50,30.44,30.38,,,,10,4,18,0.00,,,316
2014-2-11,19,6,-6,13,1,-14,84,69,57,30.46,30.28,30.02,,,,30,12,38,0.02,,,253
2014-2-12,19,16,12,10,2,-5,77,55,37,30.07,30.03,29.96,,,,10,7,26,0.01,,,297
2014-2-13,21,14,5,18,10,-5,88,77,63,29.93,29.67,29.52,,,,28,17,38,0.24,,,62
2014-2-14,14,4,-6,0,-6,-13,83,65,51,30.07,29.94,29.73,,,,20,9,33,0.00,,,344
2014-2-15,10,5,0,5,1,-6,80,76,67,30.17,30.07,30.01,,,,18,7,16,0.24,,,60
2014-2-16,9,4,-2,4,-1,-8,84,74,69,30.39,30.31,30.20,,,,13,8,22,0.00,,,62
2014-2-17,24,17,10,21,14,4,92,85,76,30.25,29.92,29.74,,,,15,9,21,0.56,,,72
2014-2-18,24,18,12,21,16,9,92,87,84,29.74,29.62,29.55,,,,9,3,,0.00,,,225
2014-2-19,34,29,24,26,22,17,88,77,69,29.86,29.72,29.58,,,,17,8,28,0.00,,,271
2014-2-20,35,30,25,30,22,14,96,74,58,29.87,29.64,29.21,,,,22,15,37,0.65,,,60
2014-2-21,30,20,9,27,13,1,88,73,64,29.50,29.15,28.95,,,,21,14,38,0.18,,,304
2014-2-22,19,12,6,8,1,-3,70,64,57,29.90,29.72,29.53,,,,18,10,26,0.00,,,265
2014-2-23,12,8,5,-1,-3,-4,70,60,49,30.12,30.03,29.91,,,,13,8,22,0.00,,,271
2014-2-24,16,8,1,0,-5,-10,75,58,45,30.25,30.19,30.12,,,,9,5,,0.00,,,271
2014-2-25,9,2,-6,-7,-12,-14,69,58,40,30.23,30.19,30.14,,,,10,6,28,0.00,,,272
2014-2-26,10,0,-9,-4,-11,-19,72,59,44,30.16,29.78,29.51,,,,13,9,25,0.00,,,284
2014-2-27,1,-8,-18,-17,-25,-31,62,46,31,30.21,30.14,29.89,,,,23,10,37,0.00,,,323
2014-2-28,7,0,-6,-1,-8,-20,80,64,42,30.17,30.08,29.98,,,,13,6,20,0.01,,,236